Terminal Aerodrome Forecast
Issued by NWS

Home | Current Version | Previous Version | Text Only | Print | Product List | Glossary On
Versions: 1 2 3 4 5 6 7 8 9 10 11 12 13 14 15 16 17 18 19 20 21 22 23
000
FTUS44 KMAF 181700
TAFCNM
TAF
KCNM 181740Z 1818/1918 05006KT P6SM SCT060 BKN120
      TEMPO 1821/1901 VRB10G25KT 3SM TSRA BKN015 BKN040CB
     FM190200 10005KT 6SM SHRA BR SCT040 BKN080=

USA.gov is the U.S. government's official web portal to all federal, state and local government web resources and services.